sensor_id;sensor_type;location;lat;lon;timestamp;pressure;altitude;pressure_sealevel;temperature;humidity
46690;BME280;32423;45.398;10.874;2024-02-26T00:00:00;100001.47;;;10.63;64.14
46690;BME280;32423;45.398;10.874;2024-02-26T00:02:51;100000.47;;;10.67;64.09
46690;BME280;32423;45.398;10.874;2024-02-26T00:05:43;99990.25;;;10.64;64.53
46690;BME280;32423;45.398;10.874;2024-02-26T00:08:35;99989.00;;;10.62;64.32
46690;BME280;32423;45.398;10.874;2024-02-26T00:11:27;99986.75;;;10.64;64.43
46690;BME280;32423;45.398;10.874;2024-02-26T00:14:17;99973.28;;;10.67;64.42
46690;BME280;32423;45.398;10.874;2024-02-26T00:17:06;99964.09;;;10.72;64.13
46690;BME280;32423;45.398;10.874;2024-02-26T00:19:58;99971.28;;;10.77;63.78
46690;BME280;32423;45.398;10.874;2024-02-26T00:22:50;99962.91;;;10.82;63.29
46690;BME280;32423;45.398;10.874;2024-02-26T00:25:40;99960.00;;;10.87;62.92
46690;BME280;32423;45.398;10.874;2024-02-26T00:28:32;99952.84;;;10.94;62.73
46690;BME280;32423;45.398;10.874;2024-02-26T00:31:32;99947.41;;;10.94;62.79
46690;BME280;32423;45.398;10.874;2024-02-26T00:34:21;99947.09;;;10.96;62.94
46690;BME280;32423;45.398;10.874;2024-02-26T00:37:11;99949.81;;;10.96;62.75
46690;BME280;32423;45.398;10.874;2024-02-26T00:40:00;99950.34;;;10.89;62.83
46690;BME280;32423;45.398;10.874;2024-02-26T00:42:52;99946.94;;;10.92;63.04
46690;BME280;32423;45.398;10.874;2024-02-26T00:45:42;99936.63;;;10.86;62.98
46690;BME280;32423;45.398;10.874;2024-02-26T00:48:34;99943.41;;;10.80;63.02
46690;BME280;32423;45.398;10.874;2024-02-26T00:51:25;99934.81;;;10.90;62.81
46690;BME280;32423;45.398;10.874;2024-02-26T00:54:18;99928.72;;;10.93;62.61
46690;BME280;32423;45.398;10.874;2024-02-26T00:57:10;99926.78;;;10.93;62.91
46690;BME280;32423;45.398;10.874;2024-02-26T01:00:02;99921.81;;;10.95;62.68
46690;BME280;32423;45.398;10.874;2024-02-26T01:02:54;99909.13;;;10.99;63.03
46690;BME280;32423;45.398;10.874;2024-02-26T01:05:46;99908.22;;;10.95;62.05
46690;BME280;32423;45.398;10.874;2024-02-26T01:08:37;99900.59;;;10.89;61.96
46690;BME280;32423;45.398;10.874;2024-02-26T01:11:29;99910.94;;;10.95;62.22
46690;BME280;32423;45.398;10.874;2024-02-26T01:14:21;99892.09;;;10.90;62.19
46690;BME280;32423;45.398;10.874;2024-02-26T01:17:13;99892.91;;;10.91;62.82
46690;BME280;32423;45.398;10.874;2024-02-26T01:20:05;99882.81;;;10.91;61.84
46690;BME280;32423;45.398;10.874;2024-02-26T01:22:57;99881.56;;;10.89;62.46
46690;BME280;32423;45.398;10.874;2024-02-26T01:25:52;99882.91;;;10.83;62.21
46690;BME280;32423;45.398;10.874;2024-02-26T01:28:44;99874.41;;;10.84;62.37
46690;BME280;32423;45.398;10.874;2024-02-26T01:31:36;99878.03;;;10.88;62.34
46690;BME280;32423;45.398;10.874;2024-02-26T01:34:28;99867.38;;;10.83;62.16
46690;BME280;32423;45.398;10.874;2024-02-26T01:37:18;99860.78;;;10.72;62.21
46690;BME280;32423;45.398;10.874;2024-02-26T01:40:10;99862.16;;;10.78;61.70
46690;BME280;32423;45.398;10.874;2024-02-26T01:42:59;99854.91;;;10.70;62.48
46690;BME280;32423;45.398;10.874;2024-02-26T01:45:51;99857.16;;;10.68;62.74
46690;BME280;32423;45.398;10.874;2024-02-26T01:48:43;99856.72;;;10.66;62.93
46690;BME280;32423;45.398;10.874;2024-02-26T01:51:36;99851.13;;;10.62;63.64
46690;BME280;32423;45.398;10.874;2024-02-26T01:54:26;99847.41;;;10.67;63.61
46690;BME280;32423;45.398;10.874;2024-02-26T01:57:17;99839.47;;;10.62;63.83
46690;BME280;32423;45.398;10.874;2024-02-26T02:00:12;99843.00;;;10.75;63.13
46690;BME280;32423;45.398;10.874;2024-02-26T02:03:05;99844.94;;;10.74;63.13
46690;BME280;32423;45.398;10.874;2024-02-26T02:05:58;99840.63;;;10.73;63.08
46690;BME280;32423;45.398;10.874;2024-02-26T02:08:50;99842.19;;;10.62;63.41
46690;BME280;32423;45.398;10.874;2024-02-26T02:11:45;99845.00;;;10.53;63.73
46690;BME280;32423;45.398;10.874;2024-02-26T02:14:38;99837.91;;;10.61;63.90
46690;BME280;32423;45.398;10.874;2024-02-26T02:17:30;99831.66;;;10.60;63.28
46690;BME280;32423;45.398;10.874;2024-02-26T02:20:24;99825.88;;;10.62;63.54
46690;BME280;32423;45.398;10.874;2024-02-26T02:23:16;99823.16;;;10.62;63.14
46690;BME280;32423;45.398;10.874;2024-02-26T02:26:08;99814.66;;;10.63;63.26
46690;BME280;32423;45.398;10.874;2024-02-26T02:28:59;99809.22;;;10.63;63.20
46690;BME280;32423;45.398;10.874;2024-02-26T02:31:51;99808.56;;;10.66;62.76
46690;BME280;32423;45.398;10.874;2024-02-26T02:34:43;99807.19;;;10.72;62.06
46690;BME280;32423;45.398;10.874;2024-02-26T02:37:35;99801.41;;;10.50;62.80
46690;BME280;32423;45.398;10.874;2024-02-26T02:40:27;99799.13;;;10.52;63.41
46690;BME280;32423;45.398;10.874;2024-02-26T02:43:19;99801.59;;;10.45;63.58
46690;BME280;32423;45.398;10.874;2024-02-26T02:46:11;99794.38;;;10.49;63.44
46690;BME280;32423;45.398;10.874;2024-02-26T02:49:07;99789.84;;;10.53;62.75
46690;BME280;32423;45.398;10.874;2024-02-26T02:51:59;99791.31;;;10.50;63.38
46690;BME280;32423;45.398;10.874;2024-02-26T02:54:50;99793.47;;;10.57;63.28
46690;BME280;32423;45.398;10.874;2024-02-26T02:57:42;99789.84;;;10.53;62.81
46690;BME280;32423;45.398;10.874;2024-02-26T03:00:34;99787.00;;;10.49;62.70
46690;BME280;32423;45.398;10.874;2024-02-26T03:03:26;99772.94;;;10.47;62.48
46690;BME280;32423;45.398;10.874;2024-02-26T03:06:18;99781.09;;;10.47;62.38
46690;BME280;32423;45.398;10.874;2024-02-26T03:09:10;99782.38;;;10.50;62.53
46690;BME280;32423;45.398;10.874;2024-02-26T03:12:02;99777.16;;;10.45;61.78
46690;BME280;32423;45.398;10.874;2024-02-26T03:14:51;99772.97;;;10.59;61.79
46690;BME280;32423;45.398;10.874;2024-02-26T03:17:43;99781.69;;;10.53;62.00
46690;BME280;32423;45.398;10.874;2024-02-26T03:20:35;99779.06;;;10.44;61.98
46690;BME280;32423;45.398;10.874;2024-02-26T03:23:27;99773.53;;;10.41;62.23
46690;BME280;32423;45.398;10.874;2024-02-26T03:26:19;99774.53;;;10.36;62.47
46690;BME280;32423;45.398;10.874;2024-02-26T03:29:13;99776.25;;;10.41;62.16
46690;BME280;32423;45.398;10.874;2024-02-26T03:32:05;99776.91;;;10.38;62.20
46690;BME280;32423;45.398;10.874;2024-02-26T03:34:57;99770.22;;;10.35;62.38
46690;BME280;32423;45.398;10.874;2024-02-26T03:37:48;99766.03;;;10.25;62.30
46690;BME280;32423;45.398;10.874;2024-02-26T03:40:40;99767.78;;;10.21;61.99
46690;BME280;32423;45.398;10.874;2024-02-26T03:43:32;99769.19;;;10.27;62.40
46690;BME280;32423;45.398;10.874;2024-02-26T03:46:24;99760.91;;;10.24;62.27
46690;BME280;32423;45.398;10.874;2024-02-26T03:49:19;99762.50;;;10.25;62.17
46690;BME280;32423;45.398;10.874;2024-02-26T03:52:11;99760.81;;;10.33;62.02
46690;BME280;32423;45.398;10.874;2024-02-26T03:55:03;99765.66;;;10.27;61.71
46690;BME280;32423;45.398;10.874;2024-02-26T03:57:52;99759.09;;;10.28;61.81
46690;BME280;32423;45.398;10.874;2024-02-26T04:00:44;99759.91;;;10.28;62.04
46690;BME280;32423;45.398;10.874;2024-02-26T04:03:36;99767.94;;;10.25;61.81
46690;BME280;32423;45.398;10.874;2024-02-26T04:06:28;99754.47;;;10.28;62.06
46690;BME280;32423;45.398;10.874;2024-02-26T04:09:20;99748.25;;;10.28;61.63
46690;BME280;32423;45.398;10.874;2024-02-26T04:12:12;99745.63;;;10.32;60.90
46690;BME280;32423;45.398;10.874;2024-02-26T04:15:03;99742.91;;;10.32;61.27
46690;BME280;32423;45.398;10.874;2024-02-26T04:17:56;99746.78;;;10.31;61.63
46690;BME280;32423;45.398;10.874;2024-02-26T04:20:48;99756.28;;;10.24;61.12
46690;BME280;32423;45.398;10.874;2024-02-26T04:23:40;99759.13;;;10.07;61.76
46690;BME280;32423;45.398;10.874;2024-02-26T04:26:32;99762.72;;;9.99;61.98
46690;BME280;32423;45.398;10.874;2024-02-26T04:29:24;99748.81;;;10.01;62.13
46690;BME280;32423;45.398;10.874;2024-02-26T04:32:16;99746.09;;;10.01;62.14
46690;BME280;32423;45.398;10.874;2024-02-26T04:35:08;99751.19;;;10.02;62.48
46690;BME280;32423;45.398;10.874;2024-02-26T04:38:00;99757.94;;;9.96;62.65
46690;BME280;32423;45.398;10.874;2024-02-26T04:40:52;99762.88;;;9.82;63.24
46690;BME280;32423;45.398;10.874;2024-02-26T04:43:43;99764.75;;;9.69;63.89
46690;BME280;32423;45.398;10.874;2024-02-26T04:46:35;99761.50;;;9.76;64.18
46690;BME280;32423;45.398;10.874;2024-02-26T04:49:27;99763.34;;;9.84;63.69
46690;BME280;32423;45.398;10.874;2024-02-26T04:52:19;99757.03;;;9.92;64.34
46690;BME280;32423;45.398;10.874;2024-02-26T04:55:11;99747.44;;;9.95;63.91
46690;BME280;32423;45.398;10.874;2024-02-26T04:58:01;99760.88;;;9.91;64.21
46690;BME280;32423;45.398;10.874;2024-02-26T05:00:52;99746.19;;;9.92;64.38
46690;BME280;32423;45.398;10.874;2024-02-26T05:03:44;99746.28;;;9.96;64.01
46690;BME280;32423;45.398;10.874;2024-02-26T05:06:34;99744.16;;;10.01;64.03
46690;BME280;32423;45.398;10.874;2024-02-26T05:09:27;99741.44;;;10.01;63.76
46690;BME280;32423;45.398;10.874;2024-02-26T05:12:19;99726.75;;;10.02;63.73
46690;BME280;32423;45.398;10.874;2024-02-26T05:15:11;99741.13;;;10.03;63.60
46690;BME280;32423;45.398;10.874;2024-02-26T05:18:04;99740.09;;;9.95;63.40
46690;BME280;32423;45.398;10.874;2024-02-26T05:20:56;99738.94;;;9.96;63.84
46690;BME280;32423;45.398;10.874;2024-02-26T05:23:48;99745.75;;;10.02;63.40
46690;BME280;32423;45.398;10.874;2024-02-26T05:26:40;99753.03;;;10.10;63.66
46690;BME280;32423;45.398;10.874;2024-02-26T05:29:32;99765.63;;;10.15;64.09
46690;BME280;32423;45.398;10.874;2024-02-26T05:32:24;99762.56;;;10.16;63.90
46690;BME280;32423;45.398;10.874;2024-02-26T05:35:16;99776.75;;;10.22;63.74
46690;BME280;32423;45.398;10.874;2024-02-26T05:38:05;99781.97;;;10.27;63.75
46690;BME280;32423;45.398;10.874;2024-02-26T05:40:57;99774.81;;;10.22;64.09
46690;BME280;32423;45.398;10.874;2024-02-26T05:43:46;99783.25;;;10.09;64.93
46690;BME280;32423;45.398;10.874;2024-02-26T05:46:38;99793.53;;;10.03;65.45
46690;BME280;32423;45.398;10.874;2024-02-26T05:49:30;99795.56;;;10.06;65.82
46690;BME280;32423;45.398;10.874;2024-02-26T05:52:22;99805.47;;;9.90;65.91
46690;BME280;32423;45.398;10.874;2024-02-26T05:55:14;99817.19;;;9.82;66.10
46690;BME280;32423;45.398;10.874;2024-02-26T05:58:06;99811.56;;;9.87;66.28
46690;BME280;32423;45.398;10.874;2024-02-26T06:00:58;99812.97;;;9.72;66.78
46690;BME280;32423;45.398;10.874;2024-02-26T06:03:50;99814.47;;;9.61;67.36
46690;BME280;32423;45.398;10.874;2024-02-26T06:06:41;99830.81;;;9.53;67.24
46690;BME280;32423;45.398;10.874;2024-02-26T06:09:33;99824.88;;;9.59;67.32
46690;BME280;32423;45.398;10.874;2024-02-26T06:12:25;99816.13;;;9.54;67.72
46690;BME280;32423;45.398;10.874;2024-02-26T06:15:20;99820.44;;;9.55;67.16
46690;BME280;32423;45.398;10.874;2024-02-26T06:18:09;99817.13;;;9.49;67.43
46690;BME280;32423;45.398;10.874;2024-02-26T06:21:01;99821.09;;;9.52;67.91
46690;BME280;32423;45.398;10.874;2024-02-26T06:23:53;99818.25;;;9.48;67.74
46690;BME280;32423;45.398;10.874;2024-02-26T06:26:42;99826.31;;;9.57;67.70
46690;BME280;32423;45.398;10.874;2024-02-26T06:29:34;99829.63;;;10.04;67.62
46690;BME280;32423;45.398;10.874;2024-02-26T06:32:27;99828.34;;;10.01;66.88
46690;BME280;32423;45.398;10.874;2024-02-26T06:35:18;99828.66;;;9.87;66.80
46690;BME280;32423;45.398;10.874;2024-02-26T06:38:11;99829.97;;;9.81;67.00
46690;BME280;32423;45.398;10.874;2024-02-26T06:41:00;99836.91;;;9.70;67.44
46690;BME280;32423;45.398;10.874;2024-02-26T06:43:52;99842.53;;;9.65;67.25
46690;BME280;32423;45.398;10.874;2024-02-26T06:46:47;99840.56;;;9.54;67.85
46690;BME280;32423;45.398;10.874;2024-02-26T06:49:39;99841.81;;;9.56;67.73
46690;BME280;32423;45.398;10.874;2024-02-26T06:52:29;99845.78;;;9.59;68.18
46690;BME280;32423;45.398;10.874;2024-02-26T06:55:21;99850.88;;;9.60;68.46
46690;BME280;32423;45.398;10.874;2024-02-26T06:58:13;99858.91;;;9.77;67.88
46690;BME280;32423;45.398;10.874;2024-02-26T07:01:00;99858.69;;;9.62;68.92
46690;BME280;32423;45.398;10.874;2024-02-26T07:03:52;99864.13;;;9.62;69.12
46690;BME280;32423;45.398;10.874;2024-02-26T07:06:43;99858.97;;;9.69;68.90
46690;BME280;32423;45.398;10.874;2024-02-26T07:09:36;99859.97;;;9.64;69.28
46690;BME280;32423;45.398;10.874;2024-02-26T07:12:27;99868.56;;;9.66;69.53
46690;BME280;32423;45.398;10.874;2024-02-26T07:15:17;99868.72;;;9.70;69.78
46690;BME280;32423;45.398;10.874;2024-02-26T07:18:06;99873.28;;;9.78;69.91
46690;BME280;32423;45.398;10.874;2024-02-26T07:20:56;99875.06;;;9.74;70.01
46690;BME280;32423;45.398;10.874;2024-02-26T07:23:48;99878.22;;;9.55;70.95
46690;BME280;32423;45.398;10.874;2024-02-26T07:26:40;99878.00;;;9.60;71.25
46690;BME280;32423;45.398;10.874;2024-02-26T07:29:32;99872.41;;;9.65;71.06
46690;BME280;32423;45.398;10.874;2024-02-26T07:32:21;99872.69;;;10.35;68.58
46690;BME280;32423;45.398;10.874;2024-02-26T07:35:13;99872.34;;;10.15;69.09
46690;BME280;32423;45.398;10.874;2024-02-26T07:38:05;99870.69;;;10.02;69.41
46690;BME280;32423;45.398;10.874;2024-02-26T07:40:57;99863.47;;;10.06;69.49
46690;BME280;32423;45.398;10.874;2024-02-26T07:43:49;99874.34;;;10.06;69.69
46690;BME280;32423;45.398;10.874;2024-02-26T07:46:41;99873.22;;;10.07;70.14
46690;BME280;32423;45.398;10.874;2024-02-26T07:49:36;99865.06;;;10.07;70.33
46690;BME280;32423;45.398;10.874;2024-02-26T07:52:25;99866.94;;;10.15;69.89
46690;BME280;32423;45.398;10.874;2024-02-26T07:55:17;99875.47;;;10.26;70.10
46690;BME280;32423;45.398;10.874;2024-02-26T07:58:09;99875.81;;;10.24;70.27
46690;BME280;32423;45.398;10.874;2024-02-26T08:00:59;99877.63;;;10.20;70.81
46690;BME280;32423;45.398;10.874;2024-02-26T08:03:51;99875.03;;;10.24;70.22
46690;BME280;32423;45.398;10.874;2024-02-26T08:06:40;99877.66;;;10.33;70.39
46690;BME280;32423;45.398;10.874;2024-02-26T08:09:32;99871.63;;;10.27;70.36
46690;BME280;32423;45.398;10.874;2024-02-26T08:12:24;99879.06;;;10.18;70.81
46690;BME280;32423;45.398;10.874;2024-02-26T08:15:16;99870.03;;;10.26;70.65
46690;BME280;32423;45.398;10.874;2024-02-26T08:18:08;99866.56;;;10.38;70.67
46690;BME280;32423;45.398;10.874;2024-02-26T08:21:00;99866.72;;;11.59;70.15
46690;BME280;32423;45.398;10.874;2024-02-26T08:23:52;99865.03;;;11.06;68.61
46690;BME280;32423;45.398;10.874;2024-02-26T08:26:44;99861.50;;;10.93;69.30
46690;BME280;32423;45.398;10.874;2024-02-26T08:29:36;99873.25;;;10.73;69.56
46690;BME280;32423;45.398;10.874;2024-02-26T08:32:28;99879.81;;;10.72;69.84
46690;BME280;32423;45.398;10.874;2024-02-26T08:35:20;99876.97;;;10.68;70.59
46690;BME280;32423;45.398;10.874;2024-02-26T08:38:12;99872.56;;;10.64;70.33
46690;BME280;32423;45.398;10.874;2024-02-26T08:41:04;99866.91;;;10.69;70.47
46690;BME280;32423;45.398;10.874;2024-02-26T08:43:56;99872.59;;;10.76;70.94
46690;BME280;32423;45.398;10.874;2024-02-26T08:46:48;99870.47;;;10.82;70.04
46690;BME280;32423;45.398;10.874;2024-02-26T08:49:42;99864.91;;;10.90;70.12
46690;BME280;32423;45.398;10.874;2024-02-26T08:52:34;99860.63;;;11.01;70.09
46690;BME280;32423;45.398;10.874;2024-02-26T08:55:26;99859.47;;;11.75;72.34
46690;BME280;32423;45.398;10.874;2024-02-26T08:58:17;99855.72;;;12.63;69.92
46690;BME280;32423;45.398;10.874;2024-02-26T09:01:09;99853.19;;;13.02;67.79
46690;BME280;32423;45.398;10.874;2024-02-26T09:04:01;99853.63;;;13.04;62.72
46690;BME280;32423;45.398;10.874;2024-02-26T09:06:53;99847.91;;;12.77;62.83
46690;BME280;32423;45.398;10.874;2024-02-26T09:09:48;99845.22;;;12.50;63.03
46690;BME280;32423;45.398;10.874;2024-02-26T09:12:40;99844.66;;;12.28;63.37
46690;BME280;32423;45.398;10.874;2024-02-26T09:15:32;99844.34;;;12.18;63.95
46690;BME280;32423;45.398;10.874;2024-02-26T09:18:21;99848.22;;;12.17;63.71
46690;BME280;32423;45.398;10.874;2024-02-26T09:21:13;99846.22;;;12.02;63.22
46690;BME280;32423;45.398;10.874;2024-02-26T09:24:05;99844.22;;;11.86;62.90
46690;BME280;32423;45.398;10.874;2024-02-26T09:26:57;99844.81;;;11.80;63.37
46690;BME280;32423;45.398;10.874;2024-02-26T09:29:49;99836.47;;;12.00;63.45
46690;BME280;32423;45.398;10.874;2024-02-26T09:32:40;99842.25;;;11.99;62.48
46690;BME280;32423;45.398;10.874;2024-02-26T09:35:35;99847.88;;;12.18;63.44
46690;BME280;32423;45.398;10.874;2024-02-26T09:38:27;99851.09;;;12.36;64.25
46690;BME280;32423;45.398;10.874;2024-02-26T09:41:17;99850.03;;;12.40;62.20
46690;BME280;32423;45.398;10.874;2024-02-26T09:44:15;99845.78;;;12.27;62.02
46690;BME280;32423;45.398;10.874;2024-02-26T09:47:12;99853.50;;;12.53;63.20
46690;BME280;32423;45.398;10.874;2024-02-26T09:50:06;99855.44;;;12.53;62.21
46690;BME280;32423;45.398;10.874;2024-02-26T09:52:58;99855.81;;;12.67;62.28
46690;BME280;32423;45.398;10.874;2024-02-26T09:55:51;99860.38;;;12.63;63.36
46690;BME280;32423;45.398;10.874;2024-02-26T09:58:43;99856.53;;;12.79;64.71
46690;BME280;32423;45.398;10.874;2024-02-26T10:01:36;99847.09;;;12.77;63.07
46690;BME280;32423;45.398;10.874;2024-02-26T10:04:29;99844.38;;;12.93;62.50
46690;BME280;32423;45.398;10.874;2024-02-26T10:07:18;99846.94;;;12.85;62.20
46690;BME280;32423;45.398;10.874;2024-02-26T10:10:10;99845.00;;;12.86;61.47
46690;BME280;32423;45.398;10.874;2024-02-26T10:13:02;99843.94;;;12.75;62.97
46690;BME280;32423;45.398;10.874;2024-02-26T10:15:55;99848.75;;;12.22;63.40
46690;BME280;32423;45.398;10.874;2024-02-26T10:18:51;99851.66;;;12.14;65.03
46690;BME280;32423;45.398;10.874;2024-02-26T10:21:42;99849.50;;;12.35;65.37
46690;BME280;32423;45.398;10.874;2024-02-26T10:24:34;99849.28;;;12.56;63.99
46690;BME280;32423;45.398;10.874;2024-02-26T10:27:27;99848.97;;;12.45;63.79
46690;BME280;32423;45.398;10.874;2024-02-26T10:30:19;99842.41;;;12.46;63.03
46690;BME280;32423;45.398;10.874;2024-02-26T10:33:11;99846.00;;;12.50;63.37
46690;BME280;32423;45.398;10.874;2024-02-26T10:36:03;99849.69;;;12.42;62.89
46690;BME280;32423;45.398;10.874;2024-02-26T10:38:55;99851.13;;;12.52;63.14
46690;BME280;32423;45.398;10.874;2024-02-26T10:41:47;99850.25;;;12.63;63.79
46690;BME280;32423;45.398;10.874;2024-02-26T10:44:36;99852.78;;;12.56;63.19
46690;BME280;32423;45.398;10.874;2024-02-26T10:47:31;99854.31;;;12.54;63.75
46690;BME280;32423;45.398;10.874;2024-02-26T10:50:23;99852.75;;;12.40;63.74
46690;BME280;32423;45.398;10.874;2024-02-26T10:53:15;99856.75;;;12.43;64.13
46690;BME280;32423;45.398;10.874;2024-02-26T10:56:08;99859.25;;;12.36;64.29
46690;BME280;32423;45.398;10.874;2024-02-26T10:58:59;99854.06;;;12.31;64.96
46690;BME280;32423;45.398;10.874;2024-02-26T11:01:51;99862.56;;;12.29;65.32
46690;BME280;32423;45.398;10.874;2024-02-26T11:04:43;99859.97;;;12.33;66.62
46690;BME280;32423;45.398;10.874;2024-02-26T11:07:35;99855.31;;;12.33;66.84
46690;BME280;32423;45.398;10.874;2024-02-26T11:10:27;99854.66;;;12.24;66.73
46690;BME280;32423;45.398;10.874;2024-02-26T11:13:22;99855.34;;;12.21;67.01
46690;BME280;32423;45.398;10.874;2024-02-26T11:16:15;99844.63;;;12.00;66.83
46690;BME280;32423;45.398;10.874;2024-02-26T11:19:05;99851.47;;;11.94;67.79
46690;BME280;32423;45.398;10.874;2024-02-26T11:21:58;99845.09;;;12.03;68.68
46690;BME280;32423;45.398;10.874;2024-02-26T11:24:50;99848.31;;;11.80;68.10
46690;BME280;32423;45.398;10.874;2024-02-26T11:27:42;99841.97;;;11.64;68.65
46690;BME280;32423;45.398;10.874;2024-02-26T11:30:35;99834.41;;;11.57;69.82
46690;BME280;32423;45.398;10.874;2024-02-26T11:33:27;99837.59;;;11.47;70.41
46690;BME280;32423;45.398;10.874;2024-02-26T11:36:19;99836.81;;;11.47;71.33
46690;BME280;32423;45.398;10.874;2024-02-26T11:39:12;99829.72;;;11.58;71.07
46690;BME280;32423;45.398;10.874;2024-02-26T11:42:04;99836.09;;;11.62;70.35
46690;BME280;32423;45.398;10.874;2024-02-26T11:44:59;99832.66;;;11.65;70.19
46690;BME280;32423;45.398;10.874;2024-02-26T11:47:55;99824.16;;;11.67;70.15
46690;BME280;32423;45.398;10.874;2024-02-26T11:50:50;99819.84;;;11.66;70.10
46690;BME280;32423;45.398;10.874;2024-02-26T11:53:45;99822.22;;;11.79;70.22
46690;BME280;32423;45.398;10.874;2024-02-26T11:56:35;99815.75;;;11.84;70.32
46690;BME280;32423;45.398;10.874;2024-02-26T11:59:39;99817.94;;;11.78;70.19
46690;BME280;32423;45.398;10.874;2024-02-26T12:02:43;99814.97;;;11.71;70.28
46690;BME280;32423;45.398;10.874;2024-02-26T12:05:32;99817.94;;;11.78;69.45
46690;BME280;32423;45.398;10.874;2024-02-26T12:08:22;99820.19;;;11.88;69.95
46690;BME280;32423;45.398;10.874;2024-02-26T12:11:18;99813.75;;;12.09;69.80
46690;BME280;32423;45.398;10.874;2024-02-26T12:14:11;99815.06;;;12.15;69.56
46690;BME280;32423;45.398;10.874;2024-02-26T12:17:03;99811.25;;;12.04;69.25
46690;BME280;32423;45.398;10.874;2024-02-26T12:19:56;99817.38;;;12.00;69.51
46690;BME280;32423;45.398;10.874;2024-02-26T12:22:59;99818.09;;;11.97;70.11
46690;BME280;32423;45.398;10.874;2024-02-26T12:25:48;99813.13;;;11.87;70.13
46690;BME280;32423;45.398;10.874;2024-02-26T12:28:38;99811.44;;;11.71;71.34
46690;BME280;32423;45.398;10.874;2024-02-26T12:31:25;99812.16;;;11.55;71.50
46690;BME280;32423;45.398;10.874;2024-02-26T12:34:18;99815.25;;;11.30;73.71
46690;BME280;32423;45.398;10.874;2024-02-26T12:37:07;99812.06;;;11.28;74.25
46690;BME280;32423;45.398;10.874;2024-02-26T12:39:59;99813.78;;;11.08;74.98
46690;BME280;32423;45.398;10.874;2024-02-26T12:42:51;99813.69;;;11.04;75.83
46690;BME280;32423;45.398;10.874;2024-02-26T12:45:44;99812.91;;;10.92;76.88
46690;BME280;32423;45.398;10.874;2024-02-26T12:48:36;99812.09;;;10.79;77.62
46690;BME280;32423;45.398;10.874;2024-02-26T12:51:28;99819.78;;;10.77;77.63
46690;BME280;32423;45.398;10.874;2024-02-26T12:54:21;99803.94;;;10.79;78.28
46690;BME280;32423;45.398;10.874;2024-02-26T12:57:13;99816.50;;;10.71;78.29
46690;BME280;32423;45.398;10.874;2024-02-26T13:00:05;99808.91;;;10.77;78.37
46690;BME280;32423;45.398;10.874;2024-02-26T13:02:57;99807.56;;;10.71;78.75
46690;BME280;32423;45.398;10.874;2024-02-26T13:05:51;99798.72;;;10.74;79.11
46690;BME280;32423;45.398;10.874;2024-02-26T13:08:44;99797.38;;;11.17;77.69
46690;BME280;32423;45.398;10.874;2024-02-26T13:11:36;99786.72;;;10.99;77.47
46690;BME280;32423;45.398;10.874;2024-02-26T13:14:28;99784.69;;;10.96;76.94
46690;BME280;32423;45.398;10.874;2024-02-26T13:17:21;99787.28;;;11.05;77.31
46690;BME280;32423;45.398;10.874;2024-02-26T13:20:10;99776.28;;;11.01;77.26
46690;BME280;32423;45.398;10.874;2024-02-26T13:23:02;99785.34;;;11.05;77.36
46690;BME280;32423;45.398;10.874;2024-02-26T13:25:56;99783.88;;;10.96;77.23
46690;BME280;32423;45.398;10.874;2024-02-26T13:31:51;99777.97;;;11.06;76.79
46690;BME280;32423;45.398;10.874;2024-02-26T13:34:42;99776.53;;;10.96;76.83
46690;BME280;32423;45.398;10.874;2024-02-26T13:37:34;99769.03;;;10.93;75.52
46690;BME280;32423;45.398;10.874;2024-02-26T13:40:21;99775.25;;;10.94;75.83
46690;BME280;32423;45.398;10.874;2024-02-26T13:43:10;99780.25;;;10.92;75.45
46690;BME280;32423;45.398;10.874;2024-02-26T13:46:00;99783.31;;;10.90;75.54
46690;BME280;32423;45.398;10.874;2024-02-26T13:48:52;99785.13;;;10.86;76.38
46690;BME280;32423;45.398;10.874;2024-02-26T13:51:44;99784.78;;;10.88;77.22
46690;BME280;32423;45.398;10.874;2024-02-26T13:54:33;99782.19;;;10.91;75.83
46690;BME280;32423;45.398;10.874;2024-02-26T13:57:25;99789.19;;;10.92;76.62
46690;BME280;32423;45.398;10.874;2024-02-26T14:00:18;99781.94;;;10.84;75.85
46690;BME280;32423;45.398;10.874;2024-02-26T14:03:11;99782.41;;;10.86;75.08
46690;BME280;32423;45.398;10.874;2024-02-26T14:06:00;99780.13;;;11.00;74.18
46690;BME280;32423;45.398;10.874;2024-02-26T14:08:52;99782.28;;;10.95;73.77
46690;BME280;32423;45.398;10.874;2024-02-26T14:11:39;99781.50;;;10.94;73.76
46690;BME280;32423;45.398;10.874;2024-02-26T14:14:32;99764.28;;;10.90;73.96
46690;BME280;32423;45.398;10.874;2024-02-26T14:17:24;99767.44;;;10.92;73.81
46690;BME280;32423;45.398;10.874;2024-02-26T14:20:16;99771.50;;;10.98;73.82
46690;BME280;32423;45.398;10.874;2024-02-26T14:23:08;99762.34;;;10.91;74.10
46690;BME280;32423;45.398;10.874;2024-02-26T14:25:58;99762.69;;;10.89;74.38
46690;BME280;32423;45.398;10.874;2024-02-26T14:28:49;99764.19;;;12.19;72.06
46690;BME280;32423;45.398;10.874;2024-02-26T14:31:41;99758.78;;;11.79;72.09
46690;BME280;32423;45.398;10.874;2024-02-26T14:34:33;99757.22;;;11.66;70.81
46690;BME280;32423;45.398;10.874;2024-02-26T14:37:25;99764.19;;;11.39;70.69
46690;BME280;32423;45.398;10.874;2024-02-26T14:40:17;99760.81;;;11.30;69.73
46690;BME280;32423;45.398;10.874;2024-02-26T14:43:06;99766.41;;;11.09;69.99
46690;BME280;32423;45.398;10.874;2024-02-26T14:45:59;99765.19;;;11.06;69.94
46690;BME280;32423;45.398;10.874;2024-02-26T14:48:56;99755.31;;;11.02;70.68
46690;BME280;32423;45.398;10.874;2024-02-26T14:51:48;99759.03;;;11.09;70.83
46690;BME280;32423;45.398;10.874;2024-02-26T14:54:40;99748.63;;;11.11;70.96
46690;BME280;32423;45.398;10.874;2024-02-26T14:57:29;99740.09;;;11.25;70.78
46690;BME280;32423;45.398;10.874;2024-02-26T15:00:19;99737.81;;;11.27;69.93